createdAt,value
2018-07-17T00:00:50.642Z,0.00
2018-07-17T00:01:50.613Z,0.00
2018-07-17T00:02:50.593Z,0.00
2018-07-17T00:03:50.549Z,0.00
2018-07-17T00:04:50.523Z,0.00
2018-07-17T00:05:50.505Z,0.00
2018-07-17T00:06:50.459Z,0.00
2018-07-17T00:07:50.428Z,0.00
2018-07-17T00:08:50.397Z,0.00
2018-07-17T00:09:50.363Z,0.00
2018-07-17T00:10:50.336Z,0.00
2018-07-17T00:11:50.318Z,0.00
2018-07-17T00:12:50.279Z,0.00
2018-07-17T00:13:50.244Z,0.00
2018-07-17T00:14:50.213Z,0.00
2018-07-17T00:15:50.178Z,0.00
2018-07-17T00:16:50.146Z,0.00
2018-07-17T00:17:50.139Z,0.00
2018-07-17T00:18:50.084Z,0.00
2018-07-17T00:19:50.058Z,0.00
2018-07-17T00:20:50.030Z,0.00
2018-07-17T00:21:49.998Z,0.00
2018-07-17T00:22:49.969Z,0.00
2018-07-17T00:23:49.930Z,0.00
2018-07-17T00:24:49.914Z,0.00
2018-07-17T00:25:49.874Z,0.00
2018-07-17T00:26:49.841Z,0.00
2018-07-17T00:27:49.811Z,0.00
2018-07-17T00:28:49.777Z,0.00
2018-07-17T00:29:49.753Z,0.00
2018-07-17T00:30:49.719Z,0.00
2018-07-17T00:31:49.694Z,0.00
2018-07-17T00:32:49.658Z,0.00
2018-07-17T00:33:49.620Z,0.00
2018-07-17T00:34:49.594Z,0.00
2018-07-17T00:35:49.559Z,0.00
2018-07-17T00:36:49.535Z,0.00
2018-07-17T00:37:49.512Z,0.00
2018-07-17T00:38:49.475Z,0.00
2018-07-17T00:39:49.437Z,0.00
2018-07-17T00:40:49.410Z,0.00
2018-07-17T00:41:49.379Z,0.00
2018-07-17T00:42:49.417Z,0.00
2018-07-17T00:43:49.320Z,0.00
2018-07-17T00:44:49.285Z,0.00
2018-07-17T00:45:49.256Z,0.00
2018-07-17T00:46:49.219Z,0.00
2018-07-17T00:47:49.195Z,0.00
2018-07-17T00:48:49.176Z,0.00
2018-07-17T00:49:49.132Z,0.00
2018-07-17T00:50:49.100Z,0.00
2018-07-17T00:51:49.065Z,0.00
2018-07-17T00:52:49.033Z,0.00
2018-07-17T00:53:49.008Z,0.00
2018-07-17T00:54:48.974Z,0.00
2018-07-17T00:55:48.944Z,0.00
2018-07-17T00:56:48.928Z,0.00
2018-07-17T00:57:48.888Z,0.00
2018-07-17T00:58:48.850Z,0.00
2018-07-17T00:59:48.820Z,0.00
2018-07-17T01:00:48.793Z,0.00
2018-07-17T01:01:48.763Z,0.00
2018-07-17T01:02:48.740Z,0.00
2018-07-17T01:03:48.699Z,0.00
2018-07-17T01:04:48.664Z,0.00
2018-07-17T01:05:48.637Z,0.00
2018-07-17T01:06:48.607Z,0.00
2018-07-17T01:07:48.576Z,0.00
2018-07-17T01:08:48.540Z,0.00
2018-07-17T01:09:48.521Z,0.00
2018-07-17T01:10:48.484Z,0.00
2018-07-17T01:11:49.165Z,0.00
2018-07-17T01:12:48.419Z,0.00
2018-07-17T01:13:48.389Z,0.00
2018-07-17T01:14:48.357Z,0.00
2018-07-17T01:15:48.325Z,0.00
2018-07-17T01:16:48.305Z,0.00
2018-07-17T01:17:48.265Z,0.00
2018-07-17T01:18:48.234Z,0.00
2018-07-17T01:19:48.203Z,0.00
2018-07-17T01:20:48.169Z,0.00
2018-07-17T01:21:48.141Z,0.00
2018-07-17T01:22:48.107Z,0.00
2018-07-17T01:23:48.087Z,0.00
2018-07-17T01:24:48.050Z,0.00
2018-07-17T01:25:48.017Z,0.00
2018-07-17T01:26:47.983Z,0.00
2018-07-17T01:27:47.951Z,0.00
2018-07-17T01:28:47.926Z,0.00
2018-07-17T01:29:48.567Z,0.00
2018-07-17T01:30:47.858Z,0.00
2018-07-17T01:31:47.833Z,0.00
2018-07-17T01:32:47.797Z,0.00
2018-07-17T01:33:47.763Z,0.00
2018-07-17T01:34:47.738Z,0.00
2018-07-17T01:35:47.700Z,0.00
2018-07-17T01:36:47.673Z,0.00
2018-07-17T01:37:47.642Z,0.00
2018-07-17T01:38:47.642Z,0.00
2018-07-17T01:39:47.583Z,0.00
2018-07-17T01:40:47.557Z,0.00
2018-07-17T01:41:47.523Z,0.00
2018-07-17T01:42:47.491Z,0.00
2018-07-17T01:43:47.455Z,0.00
2018-07-17T01:44:47.426Z,0.00
2018-07-17T01:45:47.399Z,0.00
2018-07-17T01:46:47.359Z,0.00
2018-07-17T01:47:47.328Z,0.00
2018-07-17T01:48:47.300Z,0.00
2018-07-17T01:49:47.434Z,0.00
2018-07-17T01:50:47.261Z,0.00
2018-07-17T01:51:47.210Z,0.00
2018-07-17T01:52:47.181Z,0.00
2018-07-17T01:53:47.143Z,0.00
2018-07-17T01:54:47.113Z,0.00
2018-07-17T01:55:47.081Z,0.00
2018-07-17T01:56:47.050Z,0.00
2018-07-17T01:57:47.026Z,0.00
2018-07-17T01:58:46.998Z,0.00
2018-07-17T01:59:46.958Z,0.00
2018-07-17T02:00:46.935Z,0.00
2018-07-17T02:01:46.897Z,0.00
2018-07-17T02:02:46.865Z,0.00
2018-07-17T02:03:46.835Z,0.00
2018-07-17T02:04:46.812Z,0.00
2018-07-17T02:05:46.780Z,0.00
2018-07-17T02:06:46.744Z,0.00
2018-07-17T02:07:46.712Z,0.00
2018-07-17T02:08:46.678Z,0.00
2018-07-17T02:09:46.651Z,0.00
2018-07-17T02:10:46.616Z,0.00
2018-07-17T02:11:46.589Z,0.00
2018-07-17T02:12:46.557Z,0.00
2018-07-17T02:13:46.553Z,0.00
2018-07-17T02:14:46.496Z,0.00
2018-07-17T02:15:46.468Z,0.00
2018-07-17T02:16:46.434Z,0.00
2018-07-17T02:17:46.404Z,0.00
2018-07-17T02:18:46.433Z,0.00
2018-07-17T02:19:46.341Z,0.00
2018-07-17T02:20:46.309Z,0.00
2018-07-17T02:21:46.277Z,0.00
2018-07-17T02:22:46.247Z,0.00
2018-07-17T02:23:46.214Z,0.00
2018-07-17T02:24:46.431Z,0.00
2018-07-17T02:25:46.157Z,0.00
2018-07-17T02:26:46.151Z,0.00
2018-07-17T02:27:46.093Z,0.00
2018-07-17T02:28:46.063Z,0.00
2018-07-17T02:29:46.029Z,0.00
2018-07-17T02:30:46.001Z,0.00
2018-07-17T02:31:45.972Z,0.00
2018-07-17T02:32:45.939Z,0.00
2018-07-17T02:33:45.913Z,0.00
2018-07-17T02:34:45.881Z,0.00
2018-07-17T02:35:45.843Z,0.00
2018-07-17T02:36:45.813Z,0.00
2018-07-17T02:37:45.781Z,0.00
2018-07-17T02:38:45.750Z,0.00
2018-07-17T02:39:45.728Z,0.00
2018-07-17T02:40:45.688Z,0.00
2018-07-17T02:41:45.659Z,0.00
2018-07-17T02:42:45.625Z,0.00
2018-07-17T02:43:45.598Z,0.00
2018-07-17T02:44:45.560Z,0.00
2018-07-17T02:45:45.550Z,0.00
2018-07-17T02:46:45.499Z,0.00
2018-07-17T02:47:45.465Z,0.00
2018-07-17T02:48:45.435Z,0.00
2018-07-17T02:49:45.404Z,0.00
2018-07-17T02:50:45.375Z,0.00
2018-07-17T02:51:45.352Z,0.00
2018-07-17T02:52:45.308Z,0.00
2018-07-17T02:53:45.288Z,0.00
2018-07-17T02:54:45.248Z,0.00
2018-07-17T02:55:45.217Z,0.00
2018-07-17T02:56:45.182Z,0.00
2018-07-17T02:57:45.151Z,0.00
2018-07-17T02:58:45.128Z,0.00
2018-07-17T02:59:45.091Z,0.00
2018-07-17T03:00:45.059Z,0.00
2018-07-17T03:01:45.033Z,0.00
2018-07-17T03:02:44.997Z,0.00
2018-07-17T03:03:44.964Z,0.00
2018-07-17T03:04:44.932Z,0.00
2018-07-17T03:05:44.912Z,0.00
2018-07-17T03:06:44.866Z,0.00
2018-07-17T03:07:45.024Z,0.00
2018-07-17T03:08:44.811Z,0.00
2018-07-17T03:09:44.832Z,0.00
2018-07-17T03:10:44.744Z,0.00
2018-07-17T03:11:44.733Z,0.00
2018-07-17T03:12:44.683Z,0.00
2018-07-17T03:13:44.658Z,0.00
2018-07-17T03:14:44.618Z,0.00
2018-07-17T03:15:44.590Z,0.00
2018-07-17T03:16:44.561Z,0.00
2018-07-17T03:17:44.539Z,0.00
2018-07-17T03:18:44.497Z,0.00
2018-07-17T03:19:44.464Z,0.00
2018-07-17T03:20:44.433Z,0.00
2018-07-17T03:21:44.402Z,0.00
2018-07-17T03:22:44.398Z,0.00
2018-07-17T03:23:44.358Z,0.00
2018-07-17T03:24:44.396Z,0.00
2018-07-17T03:25:44.276Z,0.00
2018-07-17T03:26:44.239Z,0.00
2018-07-17T03:27:44.206Z,0.00
2018-07-17T03:28:44.180Z,0.00
2018-07-17T03:29:44.153Z,0.00
2018-07-17T03:30:44.118Z,0.00
2018-07-17T03:31:44.091Z,0.00
2018-07-17T03:32:44.054Z,0.00
2018-07-17T03:33:44.028Z,0.00
2018-07-17T03:34:43.993Z,0.00
2018-07-17T03:35:43.958Z,0.00
2018-07-17T03:36:43.926Z,0.00
2018-07-17T03:37:43.896Z,0.00
2018-07-17T03:38:43.893Z,0.00
2018-07-17T03:39:43.836Z,5.63
2018-07-17T03:40:43.799Z,5.63
2018-07-17T03:41:43.781Z,5.63
2018-07-17T03:42:43.743Z,5.63
2018-07-17T03:43:43.711Z,5.63
2018-07-17T03:44:43.684Z,5.63
2018-07-17T03:45:43.648Z,5.63
2018-07-17T03:46:43.617Z,5.63
2018-07-17T03:47:43.584Z,5.63
2018-07-17T03:48:43.552Z,5.63
2018-07-17T03:49:43.521Z,5.63
2018-07-17T03:50:43.505Z,11.25
2018-07-17T03:51:43.462Z,11.25
2018-07-17T03:52:43.434Z,11.25
2018-07-17T03:53:43.420Z,11.25
2018-07-17T03:54:43.371Z,11.25
2018-07-17T03:55:43.333Z,11.25
2018-07-17T03:56:43.302Z,11.25
2018-07-17T03:57:43.278Z,16.88
2018-07-17T03:58:43.250Z,16.88
2018-07-17T03:59:43.204Z,16.88
2018-07-17T04:00:43.173Z,16.88
2018-07-17T04:01:43.150Z,16.88
2018-07-17T04:02:43.142Z,22.50
2018-07-17T04:03:43.087Z,22.50
2018-07-17T04:04:43.055Z,22.50
2018-07-17T04:05:43.021Z,22.50
2018-07-17T04:06:42.992Z,22.50
2018-07-17T04:07:42.957Z,22.50
2018-07-17T04:08:42.966Z,28.13
2018-07-17T04:09:42.898Z,28.13
2018-07-17T04:10:42.865Z,28.13
2018-07-17T04:11:42.834Z,33.75
2018-07-17T04:12:42.797Z,33.75
2018-07-17T04:13:42.766Z,33.75
2018-07-17T04:14:43.057Z,33.75
2018-07-17T04:15:42.705Z,39.38
2018-07-17T04:16:42.685Z,39.38
2018-07-17T04:17:42.644Z,39.38
2018-07-17T04:18:42.609Z,39.38
2018-07-17T04:19:42.582Z,39.38
2018-07-17T04:20:42.549Z,39.38
2018-07-17T04:21:42.520Z,39.38
2018-07-17T04:22:42.484Z,39.38
2018-07-17T04:23:42.463Z,39.38
2018-07-17T04:24:42.425Z,39.38
2018-07-17T04:25:42.390Z,39.38
2018-07-17T04:26:42.364Z,45.00
2018-07-17T04:27:42.333Z,45.00
2018-07-17T04:28:42.425Z,45.00
2018-07-17T04:29:42.316Z,50.63
2018-07-17T04:30:42.243Z,50.63
2018-07-17T04:31:42.205Z,56.25
2018-07-17T04:32:42.176Z,56.25
2018-07-17T04:33:42.145Z,56.25
2018-07-17T04:34:42.114Z,56.25
2018-07-17T04:35:42.080Z,56.25
2018-07-17T04:36:42.049Z,56.25
2018-07-17T04:37:42.033Z,56.25
2018-07-17T04:38:41.991Z,61.88
2018-07-17T04:39:41.960Z,61.88
2018-07-17T04:40:41.924Z,61.88
2018-07-17T04:41:41.896Z,67.50
2018-07-17T04:42:41.866Z,67.50
2018-07-17T04:43:41.889Z,67.50
2018-07-17T04:44:41.804Z,67.50
2018-07-17T04:45:41.765Z,67.50
2018-07-17T04:46:41.741Z,73.13
2018-07-17T04:47:41.773Z,73.13
2018-07-17T04:48:41.681Z,73.13
2018-07-17T04:49:41.673Z,73.13
2018-07-17T04:50:41.615Z,78.75
2018-07-17T04:51:41.585Z,84.38
2018-07-17T04:52:41.557Z,84.38
2018-07-17T04:53:41.574Z,84.38
2018-07-17T04:54:41.490Z,84.38
2018-07-17T04:55:41.468Z,90.00
2018-07-17T04:56:41.429Z,90.00
2018-07-17T04:57:41.394Z,95.63
2018-07-17T04:58:41.369Z,101.25
2018-07-17T04:59:41.335Z,101.25
2018-07-17T05:00:41.302Z,106.88
2018-07-17T05:01:41.360Z,112.50
2018-07-17T05:02:41.255Z,112.50
2018-07-17T05:03:41.212Z,123.75
2018-07-17T05:04:41.182Z,129.38
2018-07-17T05:05:41.151Z,135.00
2018-07-17T05:06:41.115Z,140.63
2018-07-17T05:07:41.095Z,146.25
2018-07-17T05:08:41.087Z,151.88
2018-07-17T05:09:41.028Z,151.88
2018-07-17T05:10:40.998Z,157.50
2018-07-17T05:11:40.967Z,163.13
2018-07-17T05:12:40.942Z,168.75
2018-07-17T05:13:40.935Z,174.38
2018-07-17T05:14:40.882Z,174.38
2018-07-17T05:15:40.853Z,174.38
2018-07-17T05:16:40.827Z,180.00
2018-07-17T05:17:40.793Z,180.00
2018-07-17T05:18:40.752Z,185.63
2018-07-17T05:19:40.722Z,185.63
2018-07-17T05:20:40.694Z,191.25
2018-07-17T05:21:40.669Z,191.25
2018-07-17T05:22:40.634Z,191.25
2018-07-17T05:23:40.608Z,191.25
2018-07-17T05:24:40.575Z,191.25
2018-07-17T05:25:40.548Z,196.88
2018-07-17T05:26:40.521Z,196.88
2018-07-17T05:27:40.492Z,196.88
2018-07-17T05:28:40.460Z,202.50
2018-07-17T05:29:40.430Z,202.50
2018-07-17T05:30:40.394Z,196.88
2018-07-17T05:31:40.372Z,196.88
2018-07-17T05:32:40.333Z,196.88
2018-07-17T05:33:40.314Z,202.50
2018-07-17T05:34:40.285Z,202.50
2018-07-17T05:35:40.256Z,208.13
2018-07-17T05:36:40.224Z,213.75
2018-07-17T05:37:40.194Z,219.38
2018-07-17T05:38:40.164Z,225.00
2018-07-17T05:39:40.135Z,225.00
2018-07-17T05:40:40.104Z,230.63
2018-07-17T05:41:40.081Z,236.25
2018-07-17T05:42:40.048Z,241.88
2018-07-17T05:43:40.018Z,247.50
2018-07-17T05:44:39.986Z,258.75
2018-07-17T05:45:39.961Z,258.75
2018-07-17T05:46:39.933Z,253.13
2018-07-17T05:47:39.900Z,258.75
2018-07-17T05:48:39.879Z,264.38
2018-07-17T05:49:39.842Z,270.00
2018-07-17T05:50:39.820Z,264.38
2018-07-17T05:51:39.788Z,253.13
2018-07-17T05:52:39.759Z,247.50
2018-07-17T05:53:39.733Z,236.25
2018-07-17T05:54:39.704Z,225.00
2018-07-17T05:55:39.675Z,225.00
2018-07-17T05:56:39.653Z,230.63
2018-07-17T05:57:39.616Z,185.63
2018-07-17T05:58:39.585Z,174.38
2018-07-17T05:59:39.562Z,174.38
2018-07-17T06:00:39.532Z,174.38
2018-07-17T06:01:39.503Z,163.13
2018-07-17T06:02:39.474Z,157.50
2018-07-17T06:03:39.447Z,146.25
2018-07-17T06:04:39.419Z,135.00
2018-07-17T06:05:39.390Z,129.38
2018-07-17T06:06:39.510Z,129.38
2018-07-17T06:07:39.331Z,123.75
2018-07-17T06:08:39.303Z,123.75
2018-07-17T06:09:39.281Z,118.13
2018-07-17T06:10:39.263Z,118.13
2018-07-17T06:11:39.218Z,112.50
2018-07-17T06:12:39.190Z,112.50
2018-07-17T06:13:39.162Z,112.50
2018-07-17T06:14:39.132Z,112.50
2018-07-17T06:15:39.110Z,112.50
2018-07-17T06:16:39.092Z,118.13
2018-07-17T06:17:39.047Z,118.13
2018-07-17T06:18:39.019Z,123.75
2018-07-17T06:19:38.991Z,123.75
2018-07-17T06:20:38.962Z,123.75
2018-07-17T06:21:38.932Z,129.38
2018-07-17T06:22:38.956Z,129.38
2018-07-17T06:23:38.873Z,135.00
2018-07-17T06:24:38.839Z,135.00
2018-07-17T06:25:38.815Z,135.00
2018-07-17T06:26:38.786Z,135.00
2018-07-17T06:27:39.013Z,140.63
2018-07-17T06:28:38.729Z,140.63
2018-07-17T06:29:38.698Z,140.63
2018-07-17T06:30:38.670Z,146.25
2018-07-17T06:31:38.641Z,146.25
2018-07-17T06:32:38.610Z,151.88
2018-07-17T06:33:38.583Z,151.88
2018-07-17T06:34:38.553Z,151.88
2018-07-17T06:35:38.524Z,151.88
2018-07-17T06:36:38.491Z,157.50
2018-07-17T06:37:38.470Z,157.50
2018-07-17T06:38:38.435Z,151.88
2018-07-17T06:39:38.403Z,151.88
2018-07-17T06:40:38.373Z,151.88
2018-07-17T06:41:38.366Z,157.50
2018-07-17T06:42:38.315Z,157.50
2018-07-17T06:43:38.287Z,163.13
2018-07-17T06:44:38.332Z,168.75
2018-07-17T06:45:38.230Z,180.00
2018-07-17T06:46:38.279Z,180.00
2018-07-17T06:47:38.287Z,185.63
2018-07-17T06:48:38.142Z,196.88
2018-07-17T06:49:38.109Z,202.50
2018-07-17T06:50:38.246Z,213.75
2018-07-17T06:51:38.055Z,253.13
2018-07-17T06:52:38.028Z,264.38
2018-07-17T06:53:37.997Z,236.25
2018-07-17T06:54:37.964Z,236.25
2018-07-17T06:55:37.938Z,264.38
2018-07-17T06:56:37.903Z,236.25
2018-07-17T06:57:37.879Z,236.25
2018-07-17T06:58:37.851Z,241.88
2018-07-17T06:59:37.818Z,236.25
2018-07-17T07:00:37.802Z,236.25
2018-07-17T07:01:37.765Z,236.25
2018-07-17T07:02:37.732Z,236.25
2018-07-17T07:03:37.707Z,241.88
2018-07-17T07:04:37.679Z,241.88
2018-07-17T07:05:37.649Z,241.88
2018-07-17T07:06:37.617Z,236.25
2018-07-17T07:07:37.588Z,230.63
2018-07-17T07:08:37.563Z,225.00
2018-07-17T07:09:37.531Z,225.00
2018-07-17T07:10:37.506Z,225.00
2018-07-17T07:11:37.475Z,230.63
2018-07-17T07:12:37.446Z,236.25
2018-07-17T07:13:37.419Z,236.25
2018-07-17T07:14:37.384Z,236.25
2018-07-17T07:15:37.370Z,236.25
2018-07-17T07:16:37.333Z,230.63
2018-07-17T07:17:37.299Z,230.63
2018-07-17T07:18:37.270Z,225.00
2018-07-17T07:19:37.247Z,225.00
2018-07-17T07:20:37.213Z,225.00
2018-07-17T07:21:37.189Z,230.63
2018-07-17T07:22:37.157Z,236.25
2018-07-17T07:23:37.125Z,241.88
2018-07-17T07:24:37.097Z,258.75
2018-07-17T07:25:37.071Z,253.13
2018-07-17T07:26:37.044Z,281.25
2018-07-17T07:27:37.015Z,247.50
2018-07-17T07:28:36.999Z,247.50
2018-07-17T07:29:36.958Z,247.50
2018-07-17T07:30:36.927Z,247.50
2018-07-17T07:31:36.902Z,253.13
2018-07-17T07:32:36.871Z,258.75
2018-07-17T07:33:36.844Z,270.00
2018-07-17T07:34:36.820Z,281.25
2018-07-17T07:35:37.525Z,281.25
2018-07-17T07:36:36.761Z,292.50
2018-07-17T07:37:36.840Z,303.75
2018-07-17T07:38:36.701Z,343.13
2018-07-17T07:39:36.675Z,410.63
2018-07-17T07:40:36.656Z,433.13
2018-07-17T07:41:36.615Z,427.50
2018-07-17T07:42:36.590Z,427.50
2018-07-17T07:43:36.841Z,421.88
2018-07-17T07:44:36.530Z,393.75
2018-07-17T07:45:36.506Z,421.88
2018-07-17T07:46:36.472Z,382.50
2018-07-17T07:47:36.458Z,399.38
2018-07-17T07:48:36.414Z,405.00
2018-07-17T07:49:36.389Z,399.38
2018-07-17T07:50:36.361Z,421.88
2018-07-17T07:51:36.332Z,416.25
2018-07-17T07:52:36.307Z,466.88
2018-07-17T07:53:36.285Z,421.88
2018-07-17T07:54:36.249Z,416.25
2018-07-17T07:55:36.255Z,472.50
2018-07-17T07:56:36.196Z,511.88
2018-07-17T07:57:36.171Z,534.38
2018-07-17T07:58:36.145Z,579.38
2018-07-17T07:59:36.115Z,596.25
2018-07-17T08:00:36.108Z,596.25
2018-07-17T08:01:36.507Z,601.88
2018-07-17T08:02:36.035Z,590.63
2018-07-17T08:03:36.057Z,568.13
2018-07-17T08:04:35.995Z,568.13
2018-07-17T08:05:35.955Z,573.75
2018-07-17T08:06:35.927Z,568.13
2018-07-17T08:07:35.909Z,568.13
2018-07-17T08:08:35.887Z,562.50
2018-07-17T08:09:35.857Z,540.00
2018-07-17T08:10:35.829Z,568.13
2018-07-17T08:11:35.882Z,489.38
2018-07-17T08:12:35.776Z,585.00
2018-07-17T08:13:35.872Z,506.25
2018-07-17T08:14:35.733Z,613.13
2018-07-17T08:15:35.715Z,624.38
2018-07-17T08:16:36.025Z,618.75
2018-07-17T08:17:35.650Z,624.38
2018-07-17T08:18:35.622Z,613.13
2018-07-17T08:19:35.598Z,613.13
2018-07-17T08:20:35.572Z,630.00
2018-07-17T08:21:35.591Z,618.75
2018-07-17T08:22:35.523Z,545.63
2018-07-17T08:23:35.498Z,556.88
2018-07-17T08:24:35.472Z,540.00
2018-07-17T08:25:35.449Z,511.88
2018-07-17T08:26:35.426Z,506.25
2018-07-17T08:27:35.403Z,466.88
2018-07-17T08:28:35.375Z,427.50
2018-07-17T08:29:35.412Z,438.75
2018-07-17T08:30:35.326Z,455.63
2018-07-17T08:31:35.297Z,466.88
2018-07-17T08:32:35.272Z,489.38
2018-07-17T08:33:35.251Z,489.38
2018-07-17T08:34:35.229Z,489.38
2018-07-17T08:35:35.195Z,523.13
2018-07-17T08:36:35.174Z,495.00
2018-07-17T08:37:35.157Z,483.75
2018-07-17T08:38:35.121Z,506.25
2018-07-17T08:39:35.099Z,506.25
2018-07-17T08:40:35.071Z,573.75
2018-07-17T08:41:35.047Z,579.38
2018-07-17T08:42:35.021Z,551.25
2018-07-17T08:43:35.071Z,472.50
2018-07-17T08:44:34.968Z,478.13
2018-07-17T08:45:34.953Z,573.75
2018-07-17T08:46:34.922Z,500.63
2018-07-17T08:47:34.893Z,573.75
2018-07-17T08:48:34.873Z,562.50
2018-07-17T08:49:34.839Z,478.13
2018-07-17T08:50:34.815Z,545.63
2018-07-17T08:51:34.793Z,579.38
2018-07-17T08:52:34.768Z,348.75
2018-07-17T08:53:34.747Z,337.50
2018-07-17T08:54:34.771Z,354.38
2018-07-17T08:55:34.691Z,511.88
2018-07-17T08:56:34.664Z,652.50
2018-07-17T08:57:34.644Z,658.13
2018-07-17T08:58:34.624Z,663.75
2018-07-17T08:59:34.592Z,663.75
2018-07-17T09:00:34.658Z,669.38
2018-07-17T09:01:34.552Z,680.63
2018-07-17T09:02:34.513Z,680.63
2018-07-17T09:03:34.487Z,663.75
2018-07-17T09:04:34.468Z,669.38
2018-07-17T09:05:34.448Z,686.25
2018-07-17T09:06:34.413Z,703.13
2018-07-17T09:07:34.387Z,714.38
2018-07-17T09:08:34.369Z,708.75
2018-07-17T09:09:34.370Z,697.50
2018-07-17T09:10:34.320Z,697.50
2018-07-17T09:11:34.293Z,686.25
2018-07-17T09:12:34.286Z,708.75
2018-07-17T09:13:34.246Z,753.75
2018-07-17T09:14:34.221Z,765.00
2018-07-17T09:15:34.196Z,787.50
2018-07-17T09:16:34.173Z,866.25
2018-07-17T09:17:34.149Z,905.63
2018-07-17T09:18:34.120Z,933.75
2018-07-17T09:19:34.134Z,1046.25
2018-07-17T09:20:34.078Z,1220.63
2018-07-17T09:21:34.063Z,1327.50
2018-07-17T09:22:34.033Z,1237.50
2018-07-17T09:23:34.002Z,1096.88
2018-07-17T09:24:33.980Z,928.13
2018-07-17T09:25:33.952Z,748.13
2018-07-17T09:26:33.940Z,579.38
2018-07-17T09:27:33.904Z,579.38
2018-07-17T09:28:33.889Z,714.38
2018-07-17T09:29:34.368Z,523.13
2018-07-17T09:30:33.837Z,511.88
2018-07-17T09:31:33.812Z,562.50
2018-07-17T09:32:33.801Z,590.63
2018-07-17T09:33:33.796Z,652.50
2018-07-17T09:34:33.740Z,573.75
2018-07-17T09:35:33.715Z,573.75
2018-07-17T09:36:33.688Z,534.38
2018-07-17T09:37:33.667Z,731.25
2018-07-17T09:38:33.657Z,534.38
2018-07-17T09:39:33.614Z,495.00
2018-07-17T09:40:33.699Z,495.00
2018-07-17T09:41:33.566Z,495.00
2018-07-17T09:42:33.542Z,506.25
2018-07-17T09:43:33.519Z,523.13
2018-07-17T09:44:33.500Z,556.88
2018-07-17T09:45:33.467Z,652.50
2018-07-17T09:46:33.441Z,669.38
2018-07-17T09:47:33.419Z,990.00
2018-07-17T09:48:33.393Z,1350.00
2018-07-17T09:49:33.370Z,1350.00
2018-07-17T09:50:33.341Z,1378.13
2018-07-17T09:51:33.330Z,1366.88
2018-07-17T09:52:33.295Z,1355.63
2018-07-17T09:53:33.266Z,1389.38
2018-07-17T09:54:33.251Z,1411.88
2018-07-17T09:55:33.237Z,1366.88
2018-07-17T09:56:33.198Z,1378.13
2018-07-17T09:57:33.171Z,1355.63
2018-07-17T09:58:33.161Z,1434.38
2018-07-17T09:59:33.123Z,1378.13
2018-07-17T10:00:33.106Z,1411.88
2018-07-17T10:01:33.075Z,1389.38
2018-07-17T10:02:33.053Z,1395.00
2018-07-17T10:03:33.028Z,1462.50
2018-07-17T10:04:33.013Z,1552.50
2018-07-17T10:05:32.980Z,1563.75
2018-07-17T10:06:32.957Z,1563.75
2018-07-17T10:07:32.938Z,939.38
2018-07-17T10:08:32.913Z,1591.88
2018-07-17T10:09:32.930Z,1715.63
2018-07-17T10:10:32.868Z,1501.88
2018-07-17T10:11:32.859Z,1715.63
2018-07-17T10:12:32.825Z,1051.88
2018-07-17T10:13:32.800Z,888.75
2018-07-17T10:14:32.875Z,1080.00
2018-07-17T10:15:32.756Z,916.88
2018-07-17T10:16:32.731Z,1642.50
2018-07-17T10:17:32.709Z,832.50
2018-07-17T10:18:32.687Z,1580.63
2018-07-17T10:19:32.673Z,1653.75
2018-07-17T10:20:32.644Z,624.38
2018-07-17T10:21:32.615Z,551.25
2018-07-17T10:22:32.589Z,534.38
2018-07-17T10:23:32.571Z,517.50
2018-07-17T10:24:32.545Z,517.50
2018-07-17T10:25:32.533Z,534.38
2018-07-17T10:26:32.510Z,573.75
2018-07-17T10:27:32.474Z,624.38
2018-07-17T10:28:32.457Z,1001.25
2018-07-17T10:29:32.428Z,798.75
2018-07-17T10:30:32.406Z,1771.88
2018-07-17T10:31:32.411Z,1957.50
2018-07-17T10:32:32.355Z,1546.88
2018-07-17T10:33:32.329Z,1867.50
2018-07-17T10:34:32.315Z,967.50
2018-07-17T10:35:32.280Z,1029.38
2018-07-17T10:36:32.275Z,1091.25
2018-07-17T10:37:32.235Z,1940.63
2018-07-17T10:38:32.294Z,1794.38
2018-07-17T10:39:32.192Z,1963.13
2018-07-17T10:40:32.167Z,1158.75
2018-07-17T10:41:32.141Z,1327.50
2018-07-17T10:42:32.122Z,753.75
2018-07-17T10:43:32.098Z,568.13
2018-07-17T10:44:32.080Z,1344.38
2018-07-17T10:45:32.045Z,624.38
2018-07-17T10:46:32.026Z,596.25
2018-07-17T10:47:32.068Z,832.50
2018-07-17T10:48:31.975Z,804.38
2018-07-17T10:49:31.952Z,1254.38
2018-07-17T10:50:31.927Z,1867.50
2018-07-17T10:51:32.633Z,1321.88
2018-07-17T10:52:31.902Z,725.63
2018-07-17T10:53:31.857Z,607.50
2018-07-17T10:54:31.830Z,540.00
2018-07-17T10:55:31.809Z,517.50
2018-07-17T10:56:31.793Z,506.25
2018-07-17T10:57:31.766Z,528.75
2018-07-17T10:58:31.737Z,573.75
2018-07-17T10:59:31.708Z,562.50
2018-07-17T11:00:31.684Z,551.25
2018-07-17T11:01:31.666Z,568.13
2018-07-17T11:02:31.639Z,545.63
2018-07-17T11:03:31.616Z,641.25
2018-07-17T11:04:31.589Z,686.25
2018-07-17T11:05:31.579Z,618.75
2018-07-17T11:06:31.539Z,652.50
2018-07-17T11:07:31.550Z,894.38
2018-07-17T11:08:31.608Z,950.63
2018-07-17T11:09:31.467Z,708.75
2018-07-17T11:10:31.443Z,708.75
2018-07-17T11:11:31.415Z,900.00
2018-07-17T11:12:31.394Z,928.13
2018-07-17T11:13:31.372Z,1051.88
2018-07-17T11:14:32.124Z,1074.38
2018-07-17T11:15:31.323Z,855.00
2018-07-17T11:16:31.293Z,888.75
2018-07-17T11:17:31.268Z,714.38
2018-07-17T11:18:31.245Z,708.75
2018-07-17T11:19:31.226Z,765.00
2018-07-17T11:20:31.202Z,961.88
2018-07-17T11:21:31.170Z,973.13
2018-07-17T11:22:31.151Z,1080.00
2018-07-17T11:23:31.120Z,1085.63
2018-07-17T11:24:31.096Z,1372.50
2018-07-17T11:25:31.079Z,1265.63
2018-07-17T11:26:31.058Z,1248.75
2018-07-17T11:27:31.023Z,1125.00
2018-07-17T11:28:31.004Z,1091.25
2018-07-17T11:29:30.979Z,1068.75
2018-07-17T11:30:31.086Z,1085.63
2018-07-17T11:31:30.936Z,1147.50
2018-07-17T11:32:30.914Z,1220.63
2018-07-17T11:33:30.889Z,1271.25
2018-07-17T11:34:30.872Z,1366.88
2018-07-17T11:35:30.846Z,1535.63
2018-07-17T11:36:30.822Z,1395.00
2018-07-17T11:37:30.811Z,1665.00
2018-07-17T11:38:30.777Z,1850.63
2018-07-17T11:39:30.756Z,1085.63
2018-07-17T11:40:30.732Z,956.25
2018-07-17T11:41:30.712Z,995.63
2018-07-17T11:42:30.687Z,1141.88
2018-07-17T11:43:30.662Z,2160.00
2018-07-17T11:44:30.638Z,2148.75
2018-07-17T11:45:30.627Z,2120.63
2018-07-17T11:46:30.596Z,2109.38
2018-07-17T11:47:30.577Z,2154.38
2018-07-17T11:48:30.548Z,1996.88
2018-07-17T11:49:30.524Z,1878.75
2018-07-17T11:50:30.504Z,1906.88
2018-07-17T11:51:30.477Z,1895.63
2018-07-17T11:52:30.466Z,1951.88
2018-07-17T11:53:30.437Z,1878.75
2018-07-17T11:54:30.412Z,1923.75
2018-07-17T11:55:30.414Z,1710.00
2018-07-17T11:56:30.392Z,1198.13
2018-07-17T11:57:30.347Z,1428.75
2018-07-17T11:58:30.331Z,748.13
2018-07-17T11:59:30.443Z,2030.63
2018-07-17T12:00:30.277Z,2041.88
2018-07-17T12:01:30.294Z,2013.75
2018-07-17T12:02:30.247Z,1743.75
2018-07-17T12:03:30.214Z,1305.00
2018-07-17T12:04:30.193Z,1130.63
2018-07-17T12:05:30.209Z,1046.25
2018-07-17T12:06:30.147Z,1012.50
2018-07-17T12:07:30.128Z,990.00
2018-07-17T12:08:30.106Z,916.88
2018-07-17T12:09:30.142Z,978.75
2018-07-17T12:10:30.081Z,1310.63
2018-07-17T12:11:30.036Z,607.50
2018-07-17T12:12:30.016Z,585.00
2018-07-17T12:13:29.995Z,641.25
2018-07-17T12:14:29.969Z,1395.00
2018-07-17T12:15:29.947Z,742.50
2018-07-17T12:16:29.940Z,843.75
2018-07-17T12:17:29.953Z,1080.00
2018-07-17T12:18:29.882Z,832.50
2018-07-17T12:19:29.857Z,838.13
2018-07-17T12:20:30.075Z,871.88
2018-07-17T12:21:29.846Z,978.75
2018-07-17T12:22:29.795Z,1141.88
2018-07-17T12:23:29.768Z,1642.50
2018-07-17T12:24:29.748Z,2025.00
2018-07-17T12:25:29.725Z,720.00
2018-07-17T12:26:29.706Z,1276.88
2018-07-17T12:27:29.682Z,731.25
2018-07-17T12:28:29.670Z,866.25
2018-07-17T12:29:29.634Z,1068.75
2018-07-17T12:30:29.611Z,1035.00
2018-07-17T12:31:29.588Z,635.63
2018-07-17T12:32:29.571Z,630.00
2018-07-17T12:33:29.546Z,871.88
2018-07-17T12:34:29.520Z,601.88
2018-07-17T12:35:29.500Z,590.63
2018-07-17T12:36:29.549Z,669.38
2018-07-17T12:37:29.529Z,1743.75
2018-07-17T12:38:29.433Z,1794.38
2018-07-17T12:39:29.405Z,933.75
2018-07-17T12:40:29.414Z,720.00
2018-07-17T12:41:29.360Z,635.63